General Rodolfo Sanchez Taboada International Airport
MMML : now visible

Airfield :











YOU CAN JOIN US ON...

 
LOGIN :

Register | Disclaimer

   EN    FR    IT 

 









Legend :    VFR   Marginal VFR   IFR   Intensive IFR   Very Intensive IFR
Visi :
Ceiling :
>= 8 km
>= 3000ft
5 to 8 km
1000 to 3000 ft
1500m to 5 km
500 to 1000 ft
800 to 1500m
200 to 500 ft
< 800m
< 200 ft
Symbols :   Thunderstorms  Fog  Heavy snow  Heavy precipitations  Wind > 20 kt






- Airport Elevation : 74 ft
- IATA code : MXL


MMML - General Rodolfo Sanchez Taboada International

CURRENT METAR :
  • 160551Z 32003KT 10SM SKC 12/00 A3009 RMK SLP190 52017 945

EXPIRED METARs :
  • 160448Z 36005KT 10SM SKC 12/01 A3008
  • 160350Z 32007KT 10SM SKC 13/02 A3007

TAF TAF MMML
Valid from the 16 at 06:00 until the 17 at 06:00 UTC


160437Z 1606/1706 32007KT P6SM SKC
FM161800 02015KT P6SM SCT025
BECMG 1703/1705 01018KT SKC



MET'MAP, your aeronautical weather chart ! - Copyright ORBIFLY December 2007 - Disclaimer

ORBIFLY MET'MAP TEAM :

Programming & Development : Alexandra Zaïnal
Concept & original design : Baudouin d'Aumeries
Assistance for programming : Marc-Olivier Méhu
Technical & hardware support : Manuel Goepfert

Contact : metmap@orbifly.com




SOURCES & CREDITS :

   NOAA       Earth
Advisory